Time;durP1;ratioP1;P1;durP2;ratioP2;P2;SDS_P1;SDS_P2;PMS_P1;PMS_P2;Temp;Humidity;BMP_temperature;BMP_pressure;BME280_temperature;BME280_humidity;BME280_pressure;Samples;Min_cycle;Max_cycle;Signal;HPM_P1;HPM_P2
2021/05/11 00:00:21;;;;;;;2.10;1.97;;;21.30;96.50;;;;;;5046175;28;20208;-80
2021/05/11 00:02:47;;;;;;;2.35;2.00;;;21.20;96.50;;;;;;5045946;27;20204;-76
2021/05/11 00:05:14;;;;;;;2.10;1.87;;;21.20;96.50;;;;;;5045748;28;20211;-76
2021/05/11 00:07:41;;;;;;;4.63;1.90;;;21.10;96.50;;;;;;5045343;28;20256;-76
2021/05/11 00:10:09;;;;;;;3.58;1.95;;;21.10;96.60;;;;;;5045778;28;20269;-76
2021/05/11 00:12:35;;;;;;;3.95;1.80;;;21.10;96.60;;;;;;5045325;28;20208;-76
2021/05/11 00:15:01;;;;;;;3.75;1.80;;;21.10;96.40;;;;;;5045456;28;20208;-76
2021/05/11 00:17:27;;;;;;;1.70;1.60;;;21.00;96.50;;;;;;5045117;28;20212;-75
2021/05/11 00:19:53;;;;;;;1.97;1.73;;;21.00;96.50;;;;;;5044889;28;20670;-76
2021/05/11 00:22:20;;;;;;;3.50;1.50;;;21.00;96.60;;;;;;5045331;28;20650;-76
2021/05/11 00:24:46;;;;;;;1.67;1.50;;;20.90;96.60;;;;;;5045153;28;20232;-76
2021/05/11 00:27:13;;;;;;;2.42;1.60;;;20.90;96.50;;;;;;5045167;28;20258;-76
2021/05/11 00:29:39;;;;;;;3.10;1.60;;;21.00;96.60;;;;;;5045371;28;20256;-76
2021/05/11 00:32:05;;;;;;;1.30;1.30;;;20.90;96.60;;;;;;5045036;28;20409;-77
2021/05/11 00:34:31;;;;;;;1.80;1.70;;;20.90;96.60;;;;;;5045203;28;20244;-76
2021/05/11 00:36:57;;;;;;;4.90;1.87;;;20.90;96.60;;;;;;5044225;28;20200;-76
2021/05/11 00:39:23;;;;;;;2.13;1.47;;;20.90;96.70;;;;;;5044787;28;20289;-76
2021/05/11 00:41:50;;;;;;;4.50;1.60;;;20.80;96.70;;;;;;5045119;28;20204;-76
2021/05/11 00:44:21;;;;;;;4.53;1.60;;;20.70;96.70;;;;;;5044892;28;20205;-76
2021/05/11 00:46:54;;;;;;;3.73;1.87;;;20.80;96.80;;;;;;5044937;28;20242;-76
2021/05/11 00:49:21;;;;;;;2.97;1.50;;;20.80;96.70;;;;;;5045039;28;20216;-76
2021/05/11 00:51:47;;;;;;;1.80;1.70;;;20.80;96.80;;;;;;5044734;28;20212;-76
2021/05/11 00:54:13;;;;;;;2.10;1.37;;;20.70;96.80;;;;;;5045025;28;20215;-80
2021/05/11 00:56:41;;;;;;;2.28;1.60;;;20.70;96.80;;;;;;5044994;28;20208;-79
2021/05/11 00:59:13;;;;;;;2.90;1.50;;;20.70;96.90;;;;;;5045248;28;20214;-80
2021/05/11 01:01:39;;;;;;;4.83;1.60;;;20.50;97.00;;;;;;5044935;28;20200;-79
2021/05/11 01:04:05;;;;;;;2.40;1.50;;;20.50;97.30;;;;;;5045609;28;20693;-80
2021/05/11 01:06:32;;;;;;;2.80;1.60;;;20.40;97.30;;;;;;5045035;28;20211;-80
2021/05/11 01:08:58;;;;;;;2.20;1.67;;;20.40;97.40;;;;;;5044622;28;20212;-80
2021/05/11 01:11:24;;;;;;;3.53;1.33;;;20.40;97.80;;;;;;5044717;28;20200;-80
2021/05/11 01:13:51;;;;;;;4.20;1.70;;;20.40;97.40;;;;;;5041567;28;20224;-80
2021/05/11 01:16:18;;;;;;;3.20;1.60;;;20.50;97.60;;;;;;5025008;28;20213;-82
2021/05/11 01:18:47;;;;;;;2.87;1.50;;;20.40;97.50;;;;;;5025200;28;20296;-78
2021/05/11 01:21:24;;;;;;;1.50;1.40;;;20.40;97.50;;;;;;5028224;28;20239;-79
2021/05/11 01:24:00;;;;;;;2.10;1.57;;;20.40;97.50;;;;;;5028095;28;20228;-79
2021/05/11 01:26:30;;;;;;;6.40;1.67;;;20.40;97.60;;;;;;5028505;28;20212;-76
2021/05/11 01:29:05;;;;;;;2.33;1.73;;;20.40;97.70;;;;;;5028050;28;20217;-77
2021/05/11 01:48:01;;;;;;;1.67;1.43;;;20.20;98.20;;;;;;5027627;28;20218;-79
2021/05/11 01:50:30;;;;;;;2.20;1.90;;;20.20;98.10;;;;;;5027911;28;20224;-79
2021/05/11 01:53:40;;;;;;;4.43;1.80;;;20.10;98.30;;;;;;5027822;28;20208;-79
2021/05/11 02:10:34;;;;;;;1.77;1.67;;;19.90;99.10;;;;;;5027273;28;20278;-80
2021/05/11 02:23:58;;;;;;;2.90;2.00;;;19.90;99.00;;;;;;5027333;28;20278;-80
2021/05/11 02:26:24;;;;;;;2.47;1.83;;;19.80;99.00;;;;;;5027224;28;20636;-79
2021/05/11 02:28:51;;;;;;;3.43;2.00;;;19.80;99.10;;;;;;5026836;28;20236;-78
2021/05/11 02:31:17;;;;;;;2.43;1.90;;;19.90;99.10;;;;;;5026031;28;20225;-79
2021/05/11 02:33:43;;;;;;;2.23;1.80;;;19.90;99.10;;;;;;5026973;28;20681;-79
2021/05/11 02:36:10;;;;;;;4.13;2.10;;;19.90;99.10;;;;;;5027336;28;20216;-79
2021/05/11 02:38:36;;;;;;;2.27;2.00;;;19.90;99.10;;;;;;5027080;28;20233;-79
2021/05/11 02:41:02;;;;;;;2.13;2.00;;;19.90;99.10;;;;;;5027166;28;20201;-79
2021/05/11 02:43:31;;;;;;;2.23;2.03;;;19.90;99.10;;;;;;5027560;28;20208;-79
2021/05/11 02:45:58;;;;;;;2.33;2.17;;;19.90;99.10;;;;;;5027039;28;20205;-79
2021/05/11 02:48:25;;;;;;;2.20;2.10;;;19.90;99.20;;;;;;5027191;28;20201;-79
2021/05/11 02:50:51;;;;;;;2.20;2.00;;;19.90;99.30;;;;;;5027104;28;20321;-78
2021/05/11 02:53:17;;;;;;;2.20;2.00;;;19.90;99.30;;;;;;5027022;28;20208;-78
2021/05/11 02:55:43;;;;;;;2.13;1.90;;;19.90;99.20;;;;;;5027082;28;20212;-78
2021/05/11 02:58:12;;;;;;;2.13;1.80;;;19.90;99.20;;;;;;5026769;28;20212;-78
2021/05/11 03:00:38;;;;;;;2.13;1.90;;;19.90;99.20;;;;;;5027096;28;20215;-78
2021/05/11 03:03:06;;;;;;;2.57;2.07;;;19.90;99.30;;;;;;5026907;28;20549;-79
2021/05/11 03:05:32;;;;;;;2.30;1.90;;;19.90;99.30;;;;;;5026948;28;20216;-78
2021/05/11 03:07:58;;;;;;;2.17;1.97;;;20.00;99.30;;;;;;5026660;28;20216;-78
2021/05/11 03:10:24;;;;;;;2.93;2.13;;;20.00;99.30;;;;;;5026751;28;20264;-78
2021/05/11 03:12:50;;;;;;;2.10;2.00;;;20.00;99.30;;;;;;5026945;28;20239;-80
2021/05/11 03:15:17;;;;;;;2.77;1.80;;;19.80;99.50;;;;;;5026979;28;20208;-79
2021/05/11 03:17:43;;;;;;;3.07;2.37;;;19.80;99.70;;;;;;5026671;28;20307;-79
2021/05/11 03:20:12;;;;;;;3.47;2.13;;;19.90;99.70;;;;;;5026254;28;20674;-80
2021/05/11 03:22:39;;;;;;;2.10;2.00;;;19.80;99.70;;;;;;5026602;28;20265;-80
2021/05/11 03:25:05;;;;;;;5.33;2.20;;;19.80;99.70;;;;;;5026283;28;20239;-81
2021/05/11 03:27:32;;;;;;;2.60;2.40;;;19.90;99.70;;;;;;5026528;28;20216;-77
2021/05/11 03:29:58;;;;;;;4.03;2.00;;;19.90;99.70;;;;;;5026403;28;20229;-77
2021/05/11 03:32:24;;;;;;;2.10;2.00;;;19.90;99.70;;;;;;5026137;28;20665;-77
2021/05/11 03:34:51;;;;;;;2.37;2.20;;;19.80;99.70;;;;;;5026442;28;20604;-80
2021/05/11 03:37:18;;;;;;;2.70;2.20;;;19.80;99.70;;;;;;5026395;28;20577;-81
2021/05/11 03:39:44;;;;;;;2.60;2.00;;;19.70;99.70;;;;;;5025956;28;20251;-80
2021/05/11 03:42:15;;;;;;;4.73;2.47;;;19.70;99.80;;;;;;5025831;28;20209;-79
2021/05/11 03:44:43;;;;;;;2.20;2.03;;;19.70;99.80;;;;;;5026312;28;20585;-80
2021/05/11 03:47:09;;;;;;;2.40;2.20;;;19.70;99.80;;;;;;5025562;28;20201;-80
2021/05/11 03:49:35;;;;;;;3.87;2.30;;;19.60;99.90;;;;;;5026125;28;20309;-80
2021/05/11 03:52:02;;;;;;;3.43;3.10;;;19.60;99.90;;;;;;5026068;28;20282;-80
2021/05/11 03:54:29;;;;;;;3.23;2.77;;;19.60;99.80;;;;;;5026067;28;20209;-80
2021/05/11 03:56:55;;;;;;;3.40;3.07;;;19.50;99.90;;;;;;5025721;28;20766;-80
2021/05/11 03:59:21;;;;;;;3.50;2.90;;;19.50;99.90;;;;;;5026100;28;20712;-80
2021/05/11 04:01:48;;;;;;;2.73;2.57;;;19.60;99.90;;;;;;5026049;28;20209;-80
2021/05/11 04:04:14;;;;;;;3.00;2.77;;;19.50;99.90;;;;;;5026245;28;20213;-80
2021/05/11 04:06:44;;;;;;;5.60;3.43;;;19.50;99.90;;;;;;5026298;28;20336;-80
2021/05/11 04:09:15;;;;;;;5.40;3.20;;;19.40;99.90;;;;;;5025918;28;20204;-80
2021/05/11 04:12:05;;;;;;;4.10;3.50;;;19.40;99.90;;;;;;5025790;28;20197;-81
2021/05/11 04:17:30;;;;;;;4.30;3.57;;;19.40;99.90;;;;;;5025804;28;20297;-79
2021/05/11 04:19:56;;;;;;;7.27;3.70;;;19.30;99.90;;;;;;5025707;28;20271;-82
2021/05/11 04:22:22;;;;;;;4.13;3.43;;;19.40;99.90;;;;;;5025489;28;20220;-82
2021/05/11 04:24:48;;;;;;;4.43;3.10;;;19.30;99.90;;;;;;5025842;28;20284;-82
2021/05/11 04:27:15;;;;;;;6.70;3.33;;;19.40;99.90;;;;;;5025669;28;20383;-82
2021/05/11 04:29:41;;;;;;;3.37;3.07;;;19.50;99.90;;;;;;5025496;28;20760;-82
2021/05/11 04:32:08;;;;;;;5.13;3.00;;;19.50;99.90;;;;;;5025092;28;20213;-82
2021/05/11 04:34:34;;;;;;;16.07;4.10;;;19.60;99.90;;;;;;5026353;28;20938;-84
2021/05/11 04:37:00;;;;;;;3.70;3.50;;;19.50;99.90;;;;;;5026930;28;20204;-86
2021/05/11 04:39:26;;;;;;;3.70;3.40;;;19.60;99.90;;;;;;5026682;28;20623;-84
2021/05/11 04:41:52;;;;;;;3.57;3.10;;;19.60;99.90;;;;;;5026863;28;20209;-84
2021/05/11 04:44:20;;;;;;;6.23;3.43;;;19.60;99.90;;;;;;5026170;28;20220;-85
2021/05/11 04:46:49;;;;;;;3.77;3.47;;;19.70;99.90;;;;;;5026143;28;20253;-82
2021/05/11 04:49:15;;;;;;;6.30;3.80;;;19.70;99.90;;;;;;5024879;28;20320;-81
2021/05/11 04:51:42;;;;;;;7.10;3.83;;;19.70;99.90;;;;;;5025924;28;20564;-83
2021/05/11 04:54:08;;;;;;;8.17;4.13;;;19.70;99.90;;;;;;5026570;28;20735;-83
2021/05/11 04:56:34;;;;;;;4.23;3.63;;;19.80;99.90;;;;;;5028716;28;20213;-78
2021/05/11 04:59:01;;;;;;;5.57;4.50;;;19.80;99.90;;;;;;5028737;28;20253;-79
2021/05/11 05:01:28;;;;;;;8.00;4.33;;;19.70;99.90;;;;;;5028969;28;20597;-79
2021/05/11 05:03:57;;;;;;;5.20;3.97;;;19.70;99.90;;;;;;5029041;28;20201;-79
2021/05/11 05:06:23;;;;;;;4.90;3.60;;;19.80;99.90;;;;;;5028626;28;20319;-78
2021/05/11 05:08:49;;;;;;;5.57;4.20;;;19.80;99.90;;;;;;5028754;28;20211;-78
2021/05/11 05:11:17;;;;;;;6.70;3.90;;;19.90;99.90;;;;;;5028304;28;20312;-78
2021/05/11 05:13:44;;;;;;;6.00;4.07;;;20.00;99.90;;;;;;5028231;28;20572;-79
2021/05/11 05:16:10;;;;;;;5.90;3.80;;;20.00;99.90;;;;;;5028440;28;20213;-78
2021/05/11 05:18:37;;;;;;;5.70;4.20;;;20.00;99.90;;;;;;5028096;28;20578;-79
2021/05/11 05:21:06;;;;;;;4.60;3.50;;;20.00;99.90;;;;;;5028329;28;20205;-79
2021/05/11 05:23:38;;;;;;;4.17;3.77;;;20.00;99.90;;;;;;5028365;28;20225;-79
2021/05/11 05:26:06;;;;;;;8.43;3.70;;;20.10;99.90;;;;;;5028599;28;20301;-78
2021/05/11 05:28:34;;;;;;;5.10;3.60;;;20.00;99.90;;;;;;5028332;28;20213;-78
2021/05/11 05:31:02;;;;;;;8.83;3.73;;;20.00;99.90;;;;;;5028168;28;20320;-78
2021/05/11 05:33:32;;;;;;;6.40;3.40;;;20.00;99.90;;;;;;5028384;28;21177;-78
2021/05/11 05:35:59;;;;;;;9.80;4.00;;;20.10;99.90;;;;;;5028340;28;20246;-78
2021/05/11 05:38:26;;;;;;;5.63;3.50;;;20.00;99.90;;;;;;5028081;28;20262;-78
2021/05/11 05:40:57;;;;;;;6.30;3.93;;;19.90;99.90;;;;;;5028177;28;20196;-78
2021/05/11 05:43:23;;;;;;;6.10;3.70;;;19.80;99.90;;;;;;5028035;28;20200;-76
2021/05/11 05:45:52;;;;;;;4.90;3.47;;;19.80;99.90;;;;;;5028099;28;20217;-76
2021/05/11 05:48:18;;;;;;;7.47;3.97;;;19.80;99.90;;;;;;5027997;28;20698;-76
2021/05/11 05:50:45;;;;;;;4.70;3.80;;;19.80;99.90;;;;;;5028260;28;20830;-81
2021/05/11 05:53:13;;;;;;;26.77;5.07;;;19.80;99.90;;;;;;5027963;28;20247;-80
2021/05/11 05:55:41;;;;;;;8.37;4.00;;;19.80;99.90;;;;;;5028478;28;20295;-80
2021/05/11 05:58:07;;;;;;;6.90;3.87;;;19.90;99.90;;;;;;5027691;28;20658;-78
2021/05/11 06:00:33;;;;;;;4.10;3.70;;;20.00;99.90;;;;;;5028218;28;20216;-78
2021/05/11 06:03:04;;;;;;;12.97;3.80;;;20.10;99.90;;;;;;5028019;28;20213;-78
2021/05/11 06:05:32;;;;;;;8.33;4.33;;;20.20;99.90;;;;;;5027947;28;20193;-79
2021/05/11 06:07:59;;;;;;;6.37;3.87;;;20.20;99.90;;;;;;5028248;28;20212;-79
2021/05/11 06:10:29;;;;;;;53.50;7.17;;;20.20;99.90;;;;;;5027800;28;20300;-79
2021/05/11 06:13:01;;;;;;;7.70;4.33;;;20.30;99.90;;;;;;5028058;28;20559;-79
2021/05/11 06:18:12;;;;;;;5.83;4.00;;;20.20;99.90;;;;;;5027409;28;20569;-79
2021/05/11 06:20:39;;;;;;;4.50;4.13;;;20.20;99.90;;;;;;5027849;28;20212;-80
2021/05/11 06:23:05;;;;;;;6.17;4.10;;;20.30;99.90;;;;;;5027698;28;20238;-79
2021/05/11 06:25:32;;;;;;;5.50;3.83;;;20.30;99.90;;;;;;5027766;28;20281;-79
2021/05/11 06:27:58;;;;;;;4.80;3.80;;;20.30;99.90;;;;;;5027842;28;20212;-79
2021/05/11 06:30:25;;;;;;;14.15;4.68;;;20.40;99.90;;;;;;5027724;28;20639;-79
2021/05/11 06:32:51;;;;;;;11.27;4.30;;;20.40;99.90;;;;;;5027502;28;20216;-80
2021/05/11 06:35:17;;;;;;;6.77;4.03;;;20.40;99.90;;;;;;5027152;28;21042;-79
2021/05/11 06:37:43;;;;;;;5.53;3.80;;;20.40;99.90;;;;;;5027266;28;20207;-79
2021/05/11 06:40:11;;;;;;;6.30;3.63;;;20.50;99.90;;;;;;5027549;28;20250;-79
2021/05/11 06:42:39;;;;;;;5.05;4.40;;;20.50;99.90;;;;;;5027226;28;20580;-80
2021/05/11 06:45:15;;;;;;;5.07;3.90;;;20.50;99.90;;;;;;5027045;28;20296;-80
2021/05/11 06:47:57;;;;;;;5.20;4.47;;;20.40;99.90;;;;;;5027529;28;20201;-82
2021/05/11 06:50:37;;;;;;;8.55;4.10;;;20.30;99.90;;;;;;5027461;28;20270;-81
2021/05/11 06:53:11;;;;;;;6.10;4.00;;;20.40;99.90;;;;;;5027312;28;20232;-81
2021/05/11 06:55:39;;;;;;;4.47;4.03;;;20.40;99.90;;;;;;5027405;28;20250;-82
2021/05/11 06:58:06;;;;;;;6.90;3.80;;;20.50;99.90;;;;;;5027032;28;20697;-82
2021/05/11 07:00:32;;;;;;;6.95;3.90;;;20.60;99.90;;;;;;5027417;28;20224;-82
2021/05/11 07:02:59;;;;;;;6.50;4.00;;;20.70;99.90;;;;;;5027326;28;20208;-79
2021/05/11 07:05:28;;;;;;;7.05;4.25;;;20.70;99.90;;;;;;5026655;28;20209;-79
2021/05/11 07:08:07;;;;;;;6.10;4.80;;;20.80;99.90;;;;;;5026920;28;20209;-79
2021/05/11 07:10:35;;;;;;;4.18;3.83;;;20.70;99.90;;;;;;5026681;28;20224;-80
2021/05/11 07:13:11;;;;;;;7.82;3.95;;;20.80;99.90;;;;;;5026903;28;20208;-81
2021/05/11 07:15:40;;;;;;;5.13;4.03;;;20.80;99.90;;;;;;5039977;28;20668;-76
2021/05/11 07:18:11;;;;;;;5.57;4.50;;;20.90;99.90;;;;;;5044770;28;20268;-75
2021/05/11 07:20:38;;;;;;;12.68;4.18;;;21.00;99.90;;;;;;5045405;28;20188;-76
2021/05/11 07:23:04;;;;;;;4.40;3.83;;;21.00;99.90;;;;;;5044552;28;20289;-84
2021/05/11 07:25:35;;;;;;;5.53;4.45;;;21.10;99.90;;;;;;5038416;27;20204;-85
2021/05/11 07:30:46;;;;;;;5.57;4.35;;;21.20;99.90;;;;;;5021123;28;20269;-85
2021/05/11 07:33:13;;;;;;;5.55;4.13;;;21.10;99.90;;;;;;5031574;28;20237;-82
2021/05/11 07:35:40;;;;;;;6.90;4.10;;;21.10;99.90;;;;;;5038755;28;20265;-86
2021/05/11 07:38:08;;;;;;;20.05;5.00;;;21.10;99.90;;;;;;5043380;28;20239;-84
2021/05/11 07:40:34;;;;;;;6.13;3.70;;;21.20;99.90;;;;;;5027056;27;20237;-84
2021/05/11 07:43:01;;;;;;;6.30;4.00;;;21.30;99.90;;;;;;5036571;28;20200;-85
2021/05/11 07:45:35;;;;;;;6.68;4.30;;;21.40;99.90;;;;;;5035676;28;20257;-85
2021/05/11 07:48:35;;;;;;;4.20;3.55;;;21.20;99.80;;;;;;5034364;28;20195;-87
2021/05/11 08:01:54;;;;;;;4.20;3.63;;;21.40;99.90;;;;;;5025671;28;20347;-84
2021/05/11 08:03:03;;;;;;;5.05;3.85;;;21.60;99.90;;;;;;5036371;28;20232;-83
2021/05/11 08:05:34;;;;;;;7.75;3.67;;;21.70;99.90;;;;;;5024301;28;20235;-82
2021/05/11 08:10:52;;;;;;;8.00;4.15;;;21.90;99.70;;;;;;5026056;28;20224;-84
2021/05/11 08:16:05;;;;;;;13.15;4.60;;;22.10;99.90;;;;;;5024829;28;20215;-84
2021/05/11 08:18:38;;;;;;;5.90;3.97;;;22.10;99.90;;;;;;5027357;28;20204;-87
2021/05/11 08:29:30;;;;;;;7.78;4.30;;;22.00;99.80;;;;;;5023630;28;20193;-78
2021/05/11 08:31:56;;;;;;;16.48;4.72;;;22.10;99.90;;;;;;5027104;28;20261;-77
2021/05/11 08:34:23;;;;;;;14.32;5.07;;;22.10;99.90;;;;;;5025236;28;20212;-79
2021/05/11 08:36:50;;;;;;;16.70;5.65;;;22.10;99.90;;;;;;5024638;28;20201;-78
2021/05/11 08:39:16;;;;;;;9.70;4.85;;;22.10;99.90;;;;;;5024410;28;20249;-79
2021/05/11 08:41:42;;;;;;;7.07;4.72;;;22.00;99.90;;;;;;5025514;28;20266;-79
2021/05/11 08:44:13;;;;;;;7.10;4.30;;;22.00;99.90;;;;;;5025385;28;20204;-79
2021/05/11 08:46:41;;;;;;;8.95;4.80;;;22.00;99.90;;;;;;5025686;28;20196;-79
2021/05/11 08:49:11;;;;;;;9.32;4.10;;;22.00;99.90;;;;;;5025313;28;20212;-79
2021/05/11 08:51:47;;;;;;;6.82;5.10;;;22.00;99.90;;;;;;5025376;28;20232;-79
2021/05/11 09:00:07;;;;;;;5.18;4.60;;;22.20;99.90;;;;;;5025189;28;20204;-79
2021/05/11 09:05:41;;;;;;;10.75;5.47;;;22.30;99.90;;;;;;5024976;28;20322;-79
2021/05/11 09:08:44;;;;;;;5.10;4.45;;;22.30;99.90;;;;;;5025581;28;20215;-79
2021/05/11 09:14:33;;;;;;;38.25;7.10;;;22.50;99.80;;;;;;5025069;28;20249;-79
2021/05/11 09:25:35;;;;;;;5.15;4.13;;;23.20;99.90;;;;;;5024932;28;20203;-79
2021/05/11 09:28:36;;;;;;;10.30;4.97;;;23.30;99.10;;;;;;5025508;28;20264;-79
2021/05/11 09:31:16;;;;;;;6.78;3.63;;;23.40;98.20;;;;;;5025111;28;20590;-79
2021/05/11 09:33:49;;;;;;;6.43;4.07;;;23.40;98.00;;;;;;5024785;28;20665;-80
2021/05/11 09:45:20;;;;;;;3.80;3.50;;;23.60;97.60;;;;;;5026178;28;20192;-76
2021/05/11 09:59:18;;;;;;;5.50;3.50;;;24.20;97.10;;;;;;5026797;28;20189;-78
2021/05/11 10:36:52;;;;;;;5.60;3.10;;;25.60;96.00;;;;;;5025757;28;20204;-78
2021/05/11 10:39:39;;;;;;;7.57;4.13;;;25.80;95.80;;;;;;5025760;28;20247;-78
2021/05/11 10:48:18;;;;;;;4.07;3.67;;;25.90;94.70;;;;;;5007738;28;20291;-78
2021/05/11 10:50:46;;;;;;;4.05;3.63;;;25.90;95.40;;;;;;5025342;28;20241;-78
2021/05/11 10:53:36;;;;;;;6.10;3.55;;;26.00;95.70;;;;;;5024524;28;20209;-78
2021/05/11 10:57:07;;;;;;;6.25;3.40;;;26.10;95.30;;;;;;5025222;28;20282;-78
2021/05/11 10:59:46;;;;;;;4.82;3.40;;;26.30;95.50;;;;;;5025469;27;20200;-78
2021/05/11 11:02:36;;;;;;;5.18;3.47;;;26.40;95.00;;;;;;5024562;28;20653;-78
2021/05/11 11:05:04;;;;;;;5.40;3.70;;;26.60;95.00;;;;;;5025370;28;20207;-78
2021/05/11 11:07:36;;;;;;;8.57;3.92;;;26.70;94.80;;;;;;5024916;28;20557;-77
2021/05/11 11:10:06;;;;;;;4.90;3.63;;;26.70;94.40;;;;;;5025579;28;20243;-77
2021/05/11 11:12:43;;;;;;;6.60;4.60;;;26.80;93.80;;;;;;5024926;28;20655;-77
2021/05/11 11:15:14;;;;;;;9.95;3.75;;;26.90;94.60;;;;;;5025413;28;20642;-77
2021/05/11 11:17:42;;;;;;;29.50;5.57;;;27.00;93.80;;;;;;5025300;28;20205;-77
2021/05/11 11:20:12;;;;;;;6.13;3.88;;;27.20;93.80;;;;;;5028794;28;20208;-77
2021/05/11 11:25:25;;;;;;;3.90;3.67;;;27.40;93.30;;;;;;5024195;28;20680;-78
2021/05/11 11:27:52;;;;;;;5.13;3.55;;;27.40;93.10;;;;;;5024617;28;20251;-77
2021/05/11 11:30:19;;;;;;;4.38;3.97;;;27.50;92.60;;;;;;5024661;28;20221;-77
2021/05/11 11:32:45;;;;;;;4.47;3.80;;;27.60;92.80;;;;;;5025067;28;20215;-78
2021/05/11 11:35:12;;;;;;;8.30;3.88;;;27.60;92.30;;;;;;5024964;28;20208;-78
2021/05/11 11:37:40;;;;;;;4.82;3.83;;;27.70;92.80;;;;;;5024948;28;20211;-78
2021/05/11 11:40:09;;;;;;;7.20;4.20;;;27.80;92.20;;;;;;5024949;28;20254;-77
2021/05/11 11:42:38;;;;;;;5.47;3.83;;;27.80;91.80;;;;;;5024599;28;20265;-77
2021/05/11 11:45:08;;;;;;;5.20;3.45;;;27.80;91.90;;;;;;5025000;28;20213;-82
2021/05/11 11:47:42;;;;;;;3.30;3.10;;;27.90;91.50;;;;;;5025132;28;20216;-82
2021/05/11 11:50:11;;;;;;;8.27;3.97;;;27.80;90.10;;;;;;5025705;28;20201;-81
2021/05/11 11:52:43;;;;;;;4.93;3.10;;;27.70;90.60;;;;;;5024766;28;20224;-81
2021/05/11 11:55:24;;;;;;;4.47;3.42;;;27.70;89.80;;;;;;5024918;28;20280;-81
2021/05/11 11:57:54;;;;;;;5.30;3.10;;;27.70;90.30;;;;;;5025039;28;20201;-81
2021/05/11 12:00:24;;;;;;;5.55;3.65;;;27.80;89.40;;;;;;5025540;28;20216;-82
2021/05/11 12:02:55;;;;;;;5.03;3.78;;;27.70;90.00;;;;;;5026006;28;20256;-84
2021/05/11 12:05:23;;;;;;;5.22;3.60;;;27.70;89.30;;;;;;5028697;28;20673;-82
2021/05/11 12:08:01;;;;;;;4.07;3.30;;;27.80;90.00;;;;;;5033327;27;20205;-82
2021/05/11 12:10:28;;;;;;;3.88;3.60;;;27.80;89.10;;;;;;5044966;28;20231;-81
2021/05/11 12:12:57;;;;;;;4.47;3.10;;;27.70;89.50;;;;;;5046349;27;20750;-82
2021/05/11 12:15:24;;;;;;;3.97;3.10;;;27.70;88.80;;;;;;5045893;28;21005;-82
2021/05/11 12:18:03;;;;;;;4.93;4.38;;;27.70;88.70;;;;;;5046175;28;20212;-82
2021/05/11 12:20:29;;;;;;;3.38;3.03;;;27.70;90.50;;;;;;5045954;28;20688;-82
2021/05/11 12:23:06;;;;;;;4.57;3.30;;;27.70;90.10;;;;;;5046086;28;20259;-81
2021/05/11 12:25:33;;;;;;;8.68;3.55;;;27.80;89.50;;;;;;5045449;28;20578;-82
2021/05/11 12:28:00;;;;;;;3.55;3.28;;;27.80;88.80;;;;;;5032522;28;20205;-85
2021/05/11 12:30:41;;;;;;;5.45;4.00;;;27.80;89.10;;;;;;5026678;28;20553;-85
2021/05/11 12:33:12;;;;;;;4.50;4.10;;;27.90;88.80;;;;;;5026773;28;20284;-83
2021/05/11 12:35:41;;;;;;;4.68;4.25;;;27.90;89.20;;;;;;5027063;28;20194;-84
2021/05/11 12:38:17;;;;;;;11.93;4.32;;;28.00;89.50;;;;;;5026867;28;20279;-84
2021/05/11 12:40:51;;;;;;;7.68;3.88;;;28.00;89.00;;;;;;5027758;28;20598;-88
2021/05/11 12:43:37;;;;;;;8.23;3.80;;;28.00;88.50;;;;;;5026405;28;20200;-82
2021/05/11 12:46:14;;;;;;;8.05;4.00;;;28.10;89.30;;;;;;5027250;28;20655;-84
2021/05/11 12:48:50;;;;;;;8.02;3.97;;;28.20;89.00;;;;;;5027415;28;20193;-84
2021/05/11 12:51:25;;;;;;;5.25;4.18;;;28.20;89.40;;;;;;5029038;28;20220;-84
2021/05/11 12:53:53;;;;;;;12.18;4.05;;;28.30;88.20;;;;;;5032851;28;20208;-87
2021/05/11 12:56:43;;;;;;;6.13;4.50;;;28.40;88.40;;;;;;5031402;28;20295;-86
2021/05/11 12:59:12;;;;;;;7.40;4.55;;;28.50;89.50;;;;;;5046365;28;20192;-84
2021/05/11 13:01:54;;;;;;;6.28;4.35;;;28.60;88.30;;;;;;5045871;27;20564;-77
2021/05/11 13:15:40;;;;;;;5.10;3.92;;;29.20;90.10;;;;;;5024546;28;20261;-78
2021/05/11 13:26:24;;;;;;;5.78;3.50;;;29.50;90.00;;;;;;5027968;28;20200;-78
2021/05/11 13:28:54;;;;;;;7.55;3.92;;;29.70;89.80;;;;;;5027815;28;20569;-77
2021/05/11 13:31:27;;;;;;;4.90;4.20;;;29.80;89.70;;;;;;5028529;28;20225;-77
2021/05/11 13:33:58;;;;;;;8.32;4.30;;;29.80;88.90;;;;;;5028576;28;20197;-77
2021/05/11 13:36:24;;;;;;;4.07;3.70;;;29.90;88.90;;;;;;5028456;28;20239;-78
2021/05/11 13:38:50;;;;;;;12.18;4.13;;;29.90;89.20;;;;;;5035808;28;20232;-77
2021/05/11 13:41:17;;;;;;;6.60;4.82;;;29.90;88.80;;;;;;5037837;28;20239;-82
2021/05/11 13:43:43;;;;;;;6.75;5.00;;;30.00;88.90;;;;;;5037516;28;20197;-83
2021/05/11 13:46:09;;;;;;;5.93;4.18;;;29.90;86.80;;;;;;5039315;28;20196;-79
2021/05/11 13:48:38;;;;;;;10.10;4.00;;;29.70;90.00;;;;;;5041853;28;20685;-79
2021/05/11 13:51:10;;;;;;;6.80;4.40;;;29.50;90.10;;;;;;5043846;28;20758;-79
2021/05/11 13:53:39;;;;;;;7.40;3.92;;;29.40;90.50;;;;;;5034513;28;20196;-79
2021/05/11 13:56:17;;;;;;;5.13;3.70;;;29.30;89.80;;;;;;5035029;28;20283;-79
2021/05/11 14:04:13;;;;;;;7.07;4.22;;;29.30;88.20;;;;;;5030223;28;20797;-80
2021/05/11 14:06:40;;;;;;;4.30;4.00;;;29.20;89.20;;;;;;5033018;28;20208;-79
2021/05/11 14:09:07;;;;;;;5.90;4.38;;;29.30;89.80;;;;;;5038156;28;20658;-79
2021/05/11 14:11:33;;;;;;;4.90;4.20;;;29.40;90.20;;;;;;5038016;28;20239;-78
2021/05/11 14:14:00;;;;;;;9.20;4.15;;;29.50;90.00;;;;;;5041451;28;20542;-79
2021/05/11 14:16:26;;;;;;;9.02;4.05;;;29.50;89.90;;;;;;5032750;28;20201;-79
2021/05/11 14:18:52;;;;;;;6.50;4.25;;;29.50;89.10;;;;;;5037415;28;20612;-79
2021/05/11 14:21:19;;;;;;;5.25;3.92;;;29.50;88.60;;;;;;5036325;28;20277;-80
2021/05/11 14:23:45;;;;;;;4.43;4.03;;;29.50;90.10;;;;;;5035919;28;20256;-79
2021/05/11 14:26:11;;;;;;;4.55;4.15;;;29.70;88.50;;;;;;5037858;28;20207;-79
2021/05/11 14:28:37;;;;;;;4.35;3.92;;;29.60;88.40;;;;;;5036613;28;20205;-79
2021/05/11 14:31:04;;;;;;;4.30;3.90;;;29.60;89.30;;;;;;5036019;28;20652;-79
2021/05/11 14:33:30;;;;;;;5.82;4.07;;;29.60;88.80;;;;;;5038013;28;20253;-79
2021/05/11 14:35:56;;;;;;;4.85;3.80;;;29.60;88.60;;;;;;5036778;28;20211;-79
2021/05/11 14:38:23;;;;;;;5.43;3.90;;;29.60;87.50;;;;;;5034249;28;20240;-80
2021/05/11 14:40:49;;;;;;;5.38;4.03;;;29.50;90.30;;;;;;5037105;28;20212;-81
2021/05/11 14:43:15;;;;;;;7.75;4.22;;;29.20;91.00;;;;;;5035869;28;20224;-79
2021/05/11 14:45:41;;;;;;;4.75;4.20;;;28.90;91.40;;;;;;5036130;28;20246;-80
2021/05/11 14:48:08;;;;;;;4.88;4.10;;;28.50;91.70;;;;;;5033401;28;20235;-80
2021/05/11 14:50:35;;;;;;;5.90;4.70;;;28.60;91.80;;;;;;5036846;28;20221;-80
2021/05/11 14:53:01;;;;;;;5.03;4.43;;;28.60;91.80;;;;;;5042661;28;20204;-82
2021/05/11 14:55:28;;;;;;;6.65;4.40;;;28.80;91.80;;;;;;5044050;28;20209;-86
2021/05/11 14:57:55;;;;;;;6.07;4.28;;;28.80;91.10;;;;;;5036250;28;20320;-82
2021/05/11 15:00:22;;;;;;;5.28;4.10;;;28.80;90.90;;;;;;5035229;28;20681;-83
2021/05/11 15:02:48;;;;;;;9.25;4.40;;;28.80;90.90;;;;;;5036006;28;20245;-83
2021/05/11 15:05:14;;;;;;;4.70;4.30;;;28.60;90.90;;;;;;5037426;28;20204;-83
2021/05/11 15:07:40;;;;;;;4.68;4.22;;;28.50;91.20;;;;;;5034743;28;20200;-83
2021/05/11 15:10:08;;;;;;;8.75;4.05;;;28.40;91.40;;;;;;5034926;28;20228;-83
2021/05/11 15:12:35;;;;;;;4.80;4.40;;;28.50;91.00;;;;;;5041162;28;20224;-83
2021/05/11 15:15:02;;;;;;;5.95;4.50;;;28.20;92.10;;;;;;5035827;28;20201;-83
2021/05/11 15:20:15;;;;;;;10.05;4.47;;;27.70;92.70;;;;;;5032777;28;20605;-83
2021/05/11 15:22:42;;;;;;;6.85;4.93;;;27.60;92.80;;;;;;5033627;28;20217;-83
2021/05/11 15:25:09;;;;;;;5.45;4.70;;;27.50;93.20;;;;;;5034982;28;20208;-84
2021/05/11 15:27:36;;;;;;;7.75;4.60;;;27.30;93.30;;;;;;5031975;28;20208;-84
2021/05/11 15:30:04;;;;;;;7.93;5.03;;;27.60;93.70;;;;;;5034266;28;20208;-82
2021/05/11 15:32:39;;;;;;;4.75;4.05;;;27.50;93.10;;;;;;5036303;28;20231;-80
2021/05/11 15:35:08;;;;;;;12.90;4.78;;;27.70;92.90;;;;;;5041872;28;20208;-85
2021/05/11 15:37:34;;;;;;;9.63;4.38;;;27.80;92.70;;;;;;5034730;28;20215;-82
2021/05/11 15:40:00;;;;;;;6.30;4.53;;;27.90;92.60;;;;;;5030931;28;20231;-83
2021/05/11 15:42:27;;;;;;;6.15;4.30;;;28.00;92.20;;;;;;5037243;28;20201;-83
2021/05/11 15:44:53;;;;;;;6.07;4.40;;;28.10;91.90;;;;;;5041320;28;20236;-84
2021/05/11 15:47:20;;;;;;;7.95;4.43;;;28.20;92.00;;;;;;5039027;28;20239;-84
2021/05/11 15:49:47;;;;;;;6.88;4.93;;;28.30;92.20;;;;;;5037913;28;20212;-84
2021/05/11 15:52:13;;;;;;;4.43;4.13;;;28.30;91.90;;;;;;5035117;28;20232;-83
2021/05/11 15:54:39;;;;;;;8.10;4.38;;;28.30;91.30;;;;;;5033641;28;20670;-85
2021/05/11 15:57:06;;;;;;;4.30;3.83;;;28.10;91.60;;;;;;5035621;28;20248;-84
2021/05/11 15:59:33;;;;;;;4.85;4.43;;;28.20;91.30;;;;;;5038348;28;20192;-84
2021/05/11 16:02:00;;;;;;;7.78;4.82;;;28.10;91.30;;;;;;5036723;27;20574;-84